Beavercreek, Ohio
Current Conditions -  °F | °C
As of 7:58 PM on Wednesday 22 Oct 2014 (Local Time) from KFFO Reporting Station
Overcast Overcast  
Wind Chill: 45°   Ceiling: 2200
Heat Index: 49°   Visibility: 10mi
Dew Point: 40°   Wind: 9mph
Humidity: 74%   Direction: 20°NNE
Pressure: 30.28"   Gusts: NA
Location:  39.73°N, 84.06°W
Report Text: KFFO 222358Z AUTO 02008KT 10SM OVC022 09/05 A3028 RMK AO2 SLP260 T00920047 10108 20092 53002
Loading
Personal Weather Stations






























Interactive Weather Map
Tropical Storm Tracking
New forecast layout! Learn more

10-Day Weather Forecast

Advertisements
Track Severe Weather on mobile